Time;durP1;ratioP1;P1;durP2;ratioP2;P2;SDS_P1;SDS_P2;PMS_P1;PMS_P2;Temp;Humidity;BMP_temperature;BMP_pressure;BME280_temperature;BME280_humidity;BME280_pressure;Samples;Min_cycle;Max_cycle;Signal;HPM_P1;HPM_P2
2024/02/05 00:01:16;;;;;;;41.65;5.18;;;;;;;;;;5063387;28;20111;-35
2024/02/05 00:03:45;;;;;;;47.80;5.70;;;;;;;;;;5054097;28;20049;-38
2024/02/05 00:06:13;;;;;;;38.92;5.57;;;;;;;;;;5057951;28;20024;-36
2024/02/05 00:08:40;;;;;;;25.63;5.07;;;;;;;;;;5060635;28;20024;-38
2024/02/05 00:11:07;;;;;;;34.42;5.53;;;;;;;;;;5061941;28;20414;-36
2024/02/05 00:13:34;;;;;;;42.25;5.90;;;;;;;;;;5032045;28;20053;-39
2024/02/05 00:16:01;;;;;;;46.92;5.55;;;;;;;;;;5040387;28;20121;-38
2024/02/05 00:18:28;;;;;;;26.52;3.90;;;;;;;;;;5041925;28;20047;-36
2024/02/05 00:20:55;;;;;;;31.30;4.05;;;;;;;;;;5039723;28;20025;-38
2024/02/05 00:23:22;;;;;;;36.55;5.75;;;;;;;;;;5042279;28;20070;-38
2024/02/05 00:25:49;;;;;;;39.97;5.72;;;;;;;;;;5049948;28;20021;-37
2024/02/05 00:28:16;;;;;;;37.90;6.03;;;;;;;;;;5040061;28;20053;-37
2024/02/05 00:30:43;;;;;;;34.15;5.32;;;;;;;;;;5033083;28;20017;-36
2024/02/05 00:33:11;;;;;;;31.85;5.00;;;;;;;;;;5034926;28;20379;-40
2024/02/05 00:35:38;;;;;;;32.28;4.65;;;;;;;;;;5038077;28;20041;-38
2024/02/05 00:38:05;;;;;;;24.88;3.53;;;;;;;;;;5036371;28;20032;-37
2024/02/05 00:40:32;;;;;;;29.05;3.80;;;;;;;;;;5032390;28;20053;-39
2024/02/05 00:42:59;;;;;;;30.38;4.10;;;;;;;;;;5044221;28;20126;-36
2024/02/05 00:45:26;;;;;;;24.48;3.55;;;;;;;;;;5035242;28;20116;-36
2024/02/05 00:47:53;;;;;;;30.38;4.60;;;;;;;;;;5050720;28;20388;-37
2024/02/05 00:50:20;;;;;;;28.63;4.70;;;;;;;;;;5050933;28;20107;-38
2024/02/05 00:52:47;;;;;;;24.35;4.05;;;;;;;;;;5050957;28;20111;-36
2024/02/05 00:55:14;;;;;;;30.75;4.47;;;;;;;;;;5050281;28;20028;-37
2024/02/05 00:57:41;;;;;;;25.90;4.25;;;;;;;;;;5048862;28;20423;-37
2024/02/05 01:00:09;;;;;;;37.55;5.45;;;;;;;;;;5039548;28;20033;-37
2024/02/05 01:02:39;;;;;;;30.77;4.32;;;;;;;;;;5050923;28;20033;-40
2024/02/05 01:05:06;;;;;;;28.02;4.43;;;;;;;;;;5047211;28;20071;-36
2024/02/05 01:07:33;;;;;;;26.40;4.70;;;;;;;;;;5037268;28;20036;-36
2024/02/05 01:10:00;;;;;;;31.73;5.03;;;;;;;;;;5033676;28;20075;-37
2024/02/05 01:12:27;;;;;;;42.55;5.45;;;;;;;;;;5025685;28;20029;-37
2024/02/05 01:14:54;;;;;;;29.08;5.00;;;;;;;;;;5063040;28;20025;-36
2024/02/05 01:17:22;;;;;;;26.15;4.32;;;;;;;;;;5051622;28;20033;-35
2024/02/05 01:19:51;;;;;;;27.35;4.32;;;;;;;;;;5050164;28;20047;-37
2024/02/05 01:22:18;;;;;;;30.10;5.03;;;;;;;;;;5061775;28;20043;-36
2024/02/05 01:24:45;;;;;;;29.15;4.80;;;;;;;;;;5050307;28;20128;-35
2024/02/05 01:27:12;;;;;;;27.02;4.32;;;;;;;;;;5052687;28;20414;-37
2024/02/05 01:29:42;;;;;;;29.48;3.55;;;;;;;;;;5061145;28;20434;-37
2024/02/05 01:32:11;;;;;;;24.17;3.70;;;;;;;;;;5073841;28;20051;-35
2024/02/05 01:34:39;;;;;;;23.23;4.05;;;;;;;;;;5072252;28;20555;-35
2024/02/05 01:37:05;;;;;;;28.52;4.35;;;;;;;;;;5065853;28;20550;-37
2024/02/05 01:39:33;;;;;;;24.25;3.42;;;;;;;;;;5053770;28;20120;-36
2024/02/05 01:42:00;;;;;;;39.63;5.13;;;;;;;;;;5054873;28;20081;-37
2024/02/05 01:44:27;;;;;;;41.92;5.20;;;;;;;;;;5041582;28;20078;-37
2024/02/05 01:46:54;;;;;;;24.10;4.30;;;;;;;;;;5053509;28;20024;-36
2024/02/05 01:49:22;;;;;;;28.90;4.55;;;;;;;;;;5053494;28;20029;-36
2024/02/05 01:51:51;;;;;;;26.10;5.28;;;;;;;;;;5058171;28;20104;-37
2024/02/05 01:54:19;;;;;;;33.83;4.55;;;;;;;;;;5053789;28;20025;-36
2024/02/05 01:56:46;;;;;;;36.83;4.20;;;;;;;;;;5053399;28;20029;-35
2024/02/05 01:59:13;;;;;;;22.23;3.70;;;;;;;;;;5057787;28;20037;-37
2024/02/05 02:01:40;;;;;;;31.98;3.60;;;;;;;;;;5050087;28;20031;-36
2024/02/05 02:04:08;;;;;;;20.50;3.60;;;;;;;;;;5051570;28;20032;-36
2024/02/05 02:06:37;;;;;;;18.83;3.92;;;;;;;;;;5055345;28;20100;-35
2024/02/05 02:09:05;;;;;;;25.60;3.58;;;;;;;;;;5045311;28;20390;-36
2024/02/05 02:11:32;;;;;;;22.67;3.88;;;;;;;;;;5054714;28;20124;-36
2024/02/05 02:13:59;;;;;;;21.52;3.58;;;;;;;;;;5061131;28;20044;-37
2024/02/05 02:16:30;;;;;;;28.17;3.38;;;;;;;;;;5055704;28;20042;-37
2024/02/05 02:18:57;;;;;;;16.70;2.80;;;;;;;;;;5056098;28;20031;-36
2024/02/05 02:21:26;;;;;;;15.13;3.25;;;;;;;;;;5061497;28;20107;-36
2024/02/05 02:23:53;;;;;;;19.92;2.90;;;;;;;;;;5057776;28;20036;-37
2024/02/05 02:26:21;;;;;;;18.35;2.88;;;;;;;;;;5072724;28;20090;-36
2024/02/05 02:28:48;;;;;;;16.33;3.25;;;;;;;;;;5064391;28;20032;-38
2024/02/05 02:31:17;;;;;;;21.10;3.33;;;;;;;;;;5061415;28;20128;-38
2024/02/05 02:33:44;;;;;;;20.58;3.83;;;;;;;;;;5066319;28;20039;-36
2024/02/05 02:36:12;;;;;;;14.32;2.97;;;;;;;;;;5062230;28;20038;-37
2024/02/05 02:38:58;;;;;;;18.58;3.50;;;;;;;;;;5061322;28;20028;-38
2024/02/05 02:41:29;;;;;;;19.67;3.20;;;;;;;;;;5054472;28;20083;-37
2024/02/05 02:43:57;;;;;;;23.85;3.08;;;;;;;;;;5053740;28;20063;-38
2024/02/05 02:46:24;;;;;;;21.05;3.47;;;;;;;;;;5067403;28;20059;-37
2024/02/05 02:48:51;;;;;;;25.02;3.15;;;;;;;;;;5057706;28;20029;-36
2024/02/05 02:51:18;;;;;;;19.30;3.20;;;;;;;;;;5058854;28;20033;-36
2024/02/05 02:53:48;;;;;;;16.75;3.13;;;;;;;;;;5065693;28;20029;-37
2024/02/05 02:56:15;;;;;;;20.02;3.00;;;;;;;;;;5071135;28;20043;-36
2024/02/05 02:58:42;;;;;;;29.25;3.38;;;;;;;;;;5065701;28;20021;-36
2024/02/05 03:01:09;;;;;;;22.80;3.67;;;;;;;;;;5065062;28;20097;-36
2024/02/05 03:03:36;;;;;;;16.92;3.15;;;;;;;;;;5052413;28;20044;-35
2024/02/05 03:06:03;;;;;;;19.95;3.08;;;;;;;;;;5055740;28;20020;-36
2024/02/05 03:08:30;;;;;;;27.42;3.45;;;;;;;;;;5063338;28;20032;-35
2024/02/05 03:10:57;;;;;;;19.45;3.00;;;;;;;;;;5064506;28;20035;-36
2024/02/05 03:13:24;;;;;;;20.30;3.28;;;;;;;;;;5066663;28;20052;-36
2024/02/05 03:15:51;;;;;;;23.67;3.25;;;;;;;;;;5066755;28;20119;-36
2024/02/05 03:18:19;;;;;;;20.30;3.58;;;;;;;;;;5070603;28;20044;-36
2024/02/05 03:20:46;;;;;;;17.95;3.15;;;;;;;;;;5057568;28;20098;-37
2024/02/05 03:23:14;;;;;;;19.92;3.20;;;;;;;;;;5057758;28;20065;-35
2024/02/05 03:25:42;;;;;;;20.77;3.28;;;;;;;;;;5061350;28;20051;-35
2024/02/05 03:28:09;;;;;;;17.48;3.40;;;;;;;;;;5058561;28;20506;-36
2024/02/05 03:30:36;;;;;;;20.45;3.13;;;;;;;;;;5062706;28;20450;-36
2024/02/05 03:33:04;;;;;;;20.02;2.97;;;;;;;;;;5054634;28;20147;-36
2024/02/05 03:35:31;;;;;;;19.00;2.90;;;;;;;;;;5051561;28;20067;-36
2024/02/05 03:37:58;;;;;;;15.10;2.92;;;;;;;;;;5055980;28;20155;-35
2024/02/05 03:40:26;;;;;;;17.65;2.70;;;;;;;;;;5042390;28;20048;-36
2024/02/05 03:42:53;;;;;;;18.13;3.38;;;;;;;;;;5059421;28;20045;-36
2024/02/05 03:45:21;;;;;;;18.00;3.03;;;;;;;;;;5061193;28;20166;-36
2024/02/05 03:47:48;;;;;;;14.27;2.85;;;;;;;;;;5062284;28;20017;-35
2024/02/05 03:50:15;;;;;;;21.50;3.33;;;;;;;;;;5059729;28;20497;-35
2024/02/05 03:52:43;;;;;;;21.17;3.38;;;;;;;;;;5062673;28;20047;-36
2024/02/05 03:55:11;;;;;;;15.68;3.10;;;;;;;;;;5052166;28;20051;-37
2024/02/05 03:57:42;;;;;;;23.45;3.08;;;;;;;;;;5049940;28;20051;-37
2024/02/05 04:00:11;;;;;;;21.07;3.43;;;;;;;;;;5059903;28;20501;-37
2024/02/05 04:02:39;;;;;;;14.30;2.83;;;;;;;;;;5061446;28;20379;-36
2024/02/05 04:05:09;;;;;;;20.42;3.25;;;;;;;;;;5061802;28;20079;-37
2024/02/05 04:07:36;;;;;;;24.75;3.60;;;;;;;;;;5044039;28;20521;-36
2024/02/05 04:10:03;;;;;;;14.65;2.88;;;;;;;;;;5057285;28;20096;-37
2024/02/05 04:12:30;;;;;;;17.27;3.13;;;;;;;;;;5060751;28;20123;-37
2024/02/05 04:14:57;;;;;;;18.13;3.30;;;;;;;;;;5037924;28;20028;-37
2024/02/05 04:17:26;;;;;;;17.15;2.97;;;;;;;;;;5071434;28;20073;-37
2024/02/05 04:19:53;;;;;;;25.90;3.33;;;;;;;;;;5041969;28;20368;-36
2024/02/05 04:22:20;;;;;;;16.65;3.45;;;;;;;;;;5060200;28;20114;-36
2024/02/05 04:24:48;;;;;;;23.13;3.50;;;;;;;;;;5060669;28;20070;-37
2024/02/05 04:27:15;;;;;;;20.13;2.95;;;;;;;;;;5061810;28;20029;-37
2024/02/05 04:29:42;;;;;;;16.48;2.53;;;;;;;;;;5060149;28;20033;-37
2024/02/05 04:32:09;;;;;;;18.20;3.22;;;;;;;;;;5060614;28;20055;-36
2024/02/05 04:34:36;;;;;;;13.60;2.65;;;;;;;;;;5061657;28;20040;-37
2024/02/05 04:37:03;;;;;;;16.98;2.65;;;;;;;;;;5060546;28;20073;-36
2024/02/05 04:39:30;;;;;;;18.33;2.83;;;;;;;;;;5060229;28;20039;-36
2024/02/05 04:41:57;;;;;;;13.48;2.95;;;;;;;;;;5061573;28;20094;-36
2024/02/05 04:44:24;;;;;;;21.00;3.50;;;;;;;;;;5060237;28;20036;-36
2024/02/05 04:46:51;;;;;;;15.32;3.40;;;;;;;;;;5060054;28;20131;-36
2024/02/05 04:49:18;;;;;;;17.25;2.70;;;;;;;;;;5061583;28;20039;-36
2024/02/05 04:51:49;;;;;;;16.80;2.80;;;;;;;;;;5052107;28;20032;-36
2024/02/05 04:54:16;;;;;;;19.02;3.15;;;;;;;;;;5068298;28;20048;-36
2024/02/05 04:56:43;;;;;;;17.15;3.35;;;;;;;;;;5071663;28;20028;-36
2024/02/05 04:59:10;;;;;;;12.38;3.00;;;;;;;;;;5067343;28;20033;-36
2024/02/05 05:01:37;;;;;;;11.85;2.85;;;;;;;;;;5070934;28;20458;-36
2024/02/05 05:04:04;;;;;;;18.55;2.97;;;;;;;;;;5076036;28;20033;-37
2024/02/05 05:06:31;;;;;;;17.75;2.60;;;;;;;;;;5072347;28;20025;-37
2024/02/05 05:08:58;;;;;;;16.60;3.10;;;;;;;;;;5074531;28;20709;-36
2024/02/05 05:11:25;;;;;;;16.30;2.92;;;;;;;;;;5076181;28;20025;-36
2024/02/05 05:13:52;;;;;;;14.43;2.95;;;;;;;;;;5059807;28;20087;-37
2024/02/05 05:16:19;;;;;;;13.13;2.90;;;;;;;;;;5073473;28;20035;-36
2024/02/05 05:18:46;;;;;;;11.63;2.50;;;;;;;;;;5074658;28;20376;-36
2024/02/05 05:21:13;;;;;;;18.38;3.08;;;;;;;;;;5074812;28;20032;-36
2024/02/05 05:23:43;;;;;;;14.25;3.30;;;;;;;;;;5074733;28;20035;-36
2024/02/05 05:26:10;;;;;;;13.60;2.55;;;;;;;;;;5074733;28;20033;-36
2024/02/05 05:28:43;;;;;;;17.55;2.80;;;;;;;;;;5074793;28;20495;-36
2024/02/05 05:31:12;;;;;;;16.40;3.28;;;;;;;;;;5074408;28;20043;-36
2024/02/05 05:33:39;;;;;;;14.48;3.15;;;;;;;;;;5074696;28;20093;-36
2024/02/05 05:36:06;;;;;;;12.60;3.05;;;;;;;;;;5074479;28;20017;-36
2024/02/05 05:38:33;;;;;;;9.88;2.72;;;;;;;;;;5074536;28;20371;-36
2024/02/05 05:41:00;;;;;;;14.30;3.08;;;;;;;;;;5074414;28;20032;-36
2024/02/05 05:43:27;;;;;;;14.85;2.80;;;;;;;;;;5074142;28;20025;-36
2024/02/05 05:45:54;;;;;;;14.60;3.22;;;;;;;;;;5074403;28;20036;-36
2024/02/05 05:48:21;;;;;;;15.95;2.75;;;;;;;;;;5074459;28;20021;-36
2024/02/05 05:50:48;;;;;;;18.60;3.25;;;;;;;;;;5074287;28;20054;-36
2024/02/05 05:53:16;;;;;;;15.63;2.92;;;;;;;;;;5056128;28;20040;-36
2024/02/05 05:55:43;;;;;;;14.75;3.05;;;;;;;;;;5074078;28;20051;-36
2024/02/05 05:58:10;;;;;;;13.82;3.17;;;;;;;;;;5074219;28;20058;-36
2024/02/05 06:00:37;;;;;;;15.18;3.22;;;;;;;;;;5074048;28;20486;-36
2024/02/05 06:03:06;;;;;;;17.63;3.28;;;;;;;;;;5070599;28;20450;-36
2024/02/05 06:05:33;;;;;;;14.55;3.40;;;;;;;;;;5073882;28;20028;-36
2024/02/05 06:08:00;;;;;;;12.88;3.05;;;;;;;;;;5074049;28;20025;-36
2024/02/05 06:10:27;;;;;;;18.15;2.70;;;;;;;;;;5074049;28;20025;-36
2024/02/05 06:12:54;;;;;;;11.07;2.70;;;;;;;;;;5072729;28;20043;-36
2024/02/05 06:15:21;;;;;;;18.65;3.03;;;;;;;;;;5073651;28;20040;-36
2024/02/05 06:17:48;;;;;;;12.05;3.15;;;;;;;;;;5073691;28;20037;-36
2024/02/05 06:20:15;;;;;;;14.15;2.90;;;;;;;;;;5073764;28;20032;-36
2024/02/05 06:22:42;;;;;;;10.73;2.90;;;;;;;;;;5073367;28;20029;-36
2024/02/05 06:25:09;;;;;;;15.80;3.33;;;;;;;;;;5073602;28;20064;-36
2024/02/05 06:27:36;;;;;;;20.65;3.38;;;;;;;;;;5073598;28;20024;-36
2024/02/05 06:30:03;;;;;;;30.52;3.38;;;;;;;;;;5073612;28;20033;-36
2024/02/05 06:32:30;;;;;;;15.43;3.13;;;;;;;;;;5073426;28;20040;-36
2024/02/05 06:34:57;;;;;;;15.45;3.05;;;;;;;;;;5073235;28;20073;-36
2024/02/05 06:37:24;;;;;;;17.00;3.00;;;;;;;;;;5073444;28;20039;-36
2024/02/05 06:39:51;;;;;;;14.52;2.85;;;;;;;;;;5073396;28;20028;-36
2024/02/05 06:42:21;;;;;;;13.80;3.13;;;;;;;;;;5073207;28;20024;-36
2024/02/05 06:44:48;;;;;;;14.65;3.25;;;;;;;;;;5073072;28;20041;-36
2024/02/05 06:47:16;;;;;;;15.25;3.03;;;;;;;;;;5070301;28;20478;-36
2024/02/05 06:49:43;;;;;;;17.42;3.22;;;;;;;;;;5053233;28;20029;-36
2024/02/05 06:52:10;;;;;;;17.85;3.17;;;;;;;;;;5053257;28;20036;-36
2024/02/05 06:54:36;;;;;;;19.55;3.50;;;;;;;;;;5053085;28;20836;-36
2024/02/05 06:57:04;;;;;;;15.52;3.10;;;;;;;;;;5051821;28;20028;-36
2024/02/05 06:59:31;;;;;;;11.00;2.95;;;;;;;;;;5052877;28;20116;-36
2024/02/05 07:01:58;;;;;;;11.95;2.63;;;;;;;;;;5052922;28;20029;-36
2024/02/05 07:04:25;;;;;;;17.17;3.05;;;;;;;;;;5052793;28;20514;-37
2024/02/05 07:06:52;;;;;;;17.05;3.25;;;;;;;;;;5052912;28;20048;-36
2024/02/05 07:09:21;;;;;;;14.75;3.00;;;;;;;;;;5052906;28;20541;-36
2024/02/05 07:11:48;;;;;;;18.90;3.33;;;;;;;;;;5052630;28;20364;-36
2024/02/05 07:14:15;;;;;;;13.00;3.10;;;;;;;;;;5068487;28;20055;-36
2024/02/05 07:16:42;;;;;;;13.68;3.58;;;;;;;;;;5072556;28;20032;-36
2024/02/05 07:19:09;;;;;;;14.23;3.08;;;;;;;;;;5072663;28;20039;-36
2024/02/05 07:21:36;;;;;;;14.02;3.08;;;;;;;;;;5072614;28;20479;-36
2024/02/05 07:24:03;;;;;;;12.45;2.88;;;;;;;;;;5072151;28;20494;-36
2024/02/05 07:26:34;;;;;;;10.52;2.88;;;;;;;;;;5072450;28;20052;-36
2024/02/05 07:29:01;;;;;;;14.40;3.05;;;;;;;;;;5072342;28;20037;-36
2024/02/05 07:31:28;;;;;;;13.80;2.72;;;;;;;;;;5054370;28;20033;-36
2024/02/05 07:33:57;;;;;;;14.88;3.08;;;;;;;;;;5072160;28;20447;-36
2024/02/05 07:36:24;;;;;;;16.73;3.22;;;;;;;;;;5072075;28;20107;-36
2024/02/05 07:38:51;;;;;;;15.68;3.13;;;;;;;;;;5072252;28;20502;-36
2024/02/05 07:41:18;;;;;;;14.73;2.95;;;;;;;;;;5072043;28;20032;-36
2024/02/05 07:43:45;;;;;;;11.43;2.83;;;;;;;;;;5071906;28;20390;-36
2024/02/05 07:46:12;;;;;;;17.05;2.97;;;;;;;;;;5071842;28;20044;-36
2024/02/05 07:48:38;;;;;;;12.10;2.90;;;;;;;;;;5072155;28;20048;-36
2024/02/05 07:51:06;;;;;;;12.57;2.90;;;;;;;;;;5072009;28;20028;-36
2024/02/05 07:53:32;;;;;;;15.50;3.50;;;;;;;;;;5071971;28;20028;-36
2024/02/05 07:56:00;;;;;;;12.07;2.85;;;;;;;;;;5071973;28;20017;-36
2024/02/05 07:58:26;;;;;;;14.27;3.30;;;;;;;;;;5071838;28;20021;-36
2024/02/05 08:00:53;;;;;;;13.77;3.13;;;;;;;;;;5071850;28;20047;-36
2024/02/05 08:03:20;;;;;;;10.27;2.78;;;;;;;;;;5071611;28;20123;-36
2024/02/05 08:05:47;;;;;;;12.95;3.15;;;;;;;;;;5071769;28;20025;-36
2024/02/05 08:08:14;;;;;;;15.95;3.75;;;;;;;;;;5071753;28;20040;-36
2024/02/05 08:10:41;;;;;;;14.00;3.40;;;;;;;;;;5071686;28;20028;-36
2024/02/05 08:13:08;;;;;;;12.23;3.00;;;;;;;;;;5071588;28;20074;-36
2024/02/05 08:15:35;;;;;;;13.43;3.25;;;;;;;;;;5071518;28;20042;-36
2024/02/05 08:18:02;;;;;;;13.80;3.28;;;;;;;;;;5071289;28;20028;-36
2024/02/05 08:20:29;;;;;;;15.43;3.15;;;;;;;;;;5071458;28;20371;-36
2024/02/05 08:22:56;;;;;;;22.73;3.95;;;;;;;;;;5071510;28;20028;-36
2024/02/05 08:25:23;;;;;;;13.60;3.22;;;;;;;;;;5071552;28;20025;-36
2024/02/05 08:27:50;;;;;;;16.08;3.63;;;;;;;;;;5071654;28;20074;-36
2024/02/05 08:30:17;;;;;;;13.93;3.38;;;;;;;;;;5071423;28;20116;-36
2024/02/05 08:32:44;;;;;;;12.52;3.08;;;;;;;;;;5071471;28;20056;-36
2024/02/05 08:35:11;;;;;;;21.95;3.53;;;;;;;;;;5070806;28;20043;-36
2024/02/05 08:37:39;;;;;;;16.25;3.60;;;;;;;;;;5071449;28;20021;-36
2024/02/05 08:40:08;;;;;;;17.67;3.67;;;;;;;;;;5071228;28;20057;-36
2024/02/05 08:42:35;;;;;;;14.90;3.17;;;;;;;;;;5071357;28;20036;-36
2024/02/05 08:45:02;;;;;;;12.20;3.25;;;;;;;;;;5071378;28;20032;-36
2024/02/05 08:47:29;;;;;;;12.52;3.35;;;;;;;;;;5071330;28;20036;-36
2024/02/05 08:49:56;;;;;;;16.35;3.58;;;;;;;;;;5071439;28;20134;-36
2024/02/05 08:52:23;;;;;;;14.32;3.08;;;;;;;;;;5071261;28;20020;-36
2024/02/05 08:54:50;;;;;;;12.23;3.25;;;;;;;;;;5070918;28;20614;-36
2024/02/05 08:57:17;;;;;;;13.23;3.15;;;;;;;;;;5071286;28;20086;-36
2024/02/05 08:59:44;;;;;;;12.52;3.40;;;;;;;;;;5071258;28;20029;-36
2024/02/05 09:02:14;;;;;;;16.75;3.40;;;;;;;;;;5071189;28;20190;-36
2024/02/05 09:04:41;;;;;;;13.75;2.85;;;;;;;;;;5071014;28;20033;-36
2024/02/05 09:07:08;;;;;;;17.23;3.10;;;;;;;;;;5071268;28;20021;-36
2024/02/05 09:09:38;;;;;;;24.30;4.03;;;;;;;;;;5071149;28;20037;-36
2024/02/05 09:12:05;;;;;;;23.17;3.90;;;;;;;;;;5071203;28;20036;-36
2024/02/05 09:14:33;;;;;;;13.80;3.60;;;;;;;;;;5070768;28;20499;-36
2024/02/05 09:17:00;;;;;;;19.05;3.90;;;;;;;;;;5070951;28;20032;-36
2024/02/05 09:19:27;;;;;;;19.58;3.80;;;;;;;;;;5071102;28;20032;-36
2024/02/05 09:21:54;;;;;;;21.00;3.83;;;;;;;;;;5070976;28;20020;-36
2024/02/05 09:24:23;;;;;;;19.55;4.10;;;;;;;;;;5070904;28;20045;-36
2024/02/05 09:26:49;;;;;;;14.23;3.50;;;;;;;;;;5070957;28;20397;-36
2024/02/05 09:29:16;;;;;;;18.40;3.78;;;;;;;;;;5070961;28;20032;-36
2024/02/05 09:31:43;;;;;;;15.40;3.50;;;;;;;;;;5071033;28;20048;-36
2024/02/05 09:34:10;;;;;;;14.55;3.80;;;;;;;;;;5070626;28;20036;-36
2024/02/05 09:36:37;;;;;;;20.88;4.10;;;;;;;;;;5071062;28;20459;-36
2024/02/05 09:39:04;;;;;;;20.40;4.53;;;;;;;;;;5070959;28;20059;-36
2024/02/05 09:41:34;;;;;;;18.67;4.05;;;;;;;;;;5070925;28;20029;-36
2024/02/05 09:44:03;;;;;;;18.52;4.30;;;;;;;;;;5070658;28;20058;-36
2024/02/05 09:46:32;;;;;;;17.80;3.70;;;;;;;;;;5070812;28;20095;-37
2024/02/05 09:49:04;;;;;;;23.08;4.28;;;;;;;;;;5073386;28;20140;-36
2024/02/05 09:51:33;;;;;;;20.50;3.77;;;;;;;;;;5074434;28;20024;-36
2024/02/05 09:54:01;;;;;;;15.63;4.03;;;;;;;;;;5074069;28;20290;-36
2024/02/05 09:56:30;;;;;;;18.15;3.95;;;;;;;;;;5074301;28;20149;-36
2024/02/05 09:58:57;;;;;;;17.02;3.40;;;;;;;;;;5074057;28;20491;-36
2024/02/05 10:01:25;;;;;;;17.27;3.88;;;;;;;;;;5068406;28;20051;-36
2024/02/05 10:03:53;;;;;;;21.08;3.53;;;;;;;;;;5062289;28;20102;-36
2024/02/05 10:06:21;;;;;;;22.58;3.97;;;;;;;;;;5068317;28;20485;-36
2024/02/05 10:08:54;;;;;;;28.60;4.85;;;;;;;;;;5074030;28;20032;-36
2024/02/05 10:11:24;;;;;;;24.40;4.22;;;;;;;;;;5073946;28;20506;-36
2024/02/05 10:13:51;;;;;;;22.27;4.30;;;;;;;;;;5073517;28;20517;-37
2024/02/05 10:16:18;;;;;;;19.80;3.63;;;;;;;;;;5070461;28;20087;-36
2024/02/05 10:18:45;;;;;;;18.23;3.67;;;;;;;;;;5065609;28;20060;-36
2024/02/05 10:21:12;;;;;;;20.85;4.78;;;;;;;;;;5066463;28;20028;-36
2024/02/05 10:23:39;;;;;;;26.88;4.55;;;;;;;;;;5070921;28;20044;-36
2024/02/05 10:26:07;;;;;;;23.05;4.50;;;;;;;;;;5073589;28;20036;-36
2024/02/05 10:28:37;;;;;;;21.45;3.88;;;;;;;;;;5062373;28;20021;-36
2024/02/05 10:31:07;;;;;;;17.40;3.65;;;;;;;;;;5061999;28;20519;-36
2024/02/05 10:33:35;;;;;;;27.00;5.00;;;;;;;;;;5062281;28;20116;-36
2024/02/05 10:36:02;;;;;;;33.50;5.30;;;;;;;;;;5067817;28;20060;-36
2024/02/05 10:38:29;;;;;;;32.72;5.20;;;;;;;;;;5069627;28;20040;-36
2024/02/05 10:40:56;;;;;;;24.20;4.68;;;;;;;;;;5064103;28;20522;-36
2024/02/05 10:43:23;;;;;;;32.30;5.05;;;;;;;;;;5061990;28;20060;-36
2024/02/05 10:45:50;;;;;;;22.83;4.32;;;;;;;;;;5066726;28;20072;-36
2024/02/05 10:48:17;;;;;;;22.83;4.35;;;;;;;;;;5053278;28;20049;-36
2024/02/05 10:50:44;;;;;;;22.63;4.30;;;;;;;;;;5052979;28;20060;-36
2024/02/05 10:53:11;;;;;;;25.10;4.88;;;;;;;;;;5067647;28;20116;-36
2024/02/05 10:55:40;;;;;;;19.25;5.05;;;;;;;;;;5072969;28;20052;-36
2024/02/05 10:58:07;;;;;;;22.33;5.43;;;;;;;;;;5072656;28;20025;-36
2024/02/05 11:00:34;;;;;;;28.63;5.13;;;;;;;;;;5072998;28;20096;-36
2024/02/05 11:03:08;;;;;;;23.20;4.40;;;;;;;;;;5072867;28;20031;-36
2024/02/05 11:05:36;;;;;;;22.50;4.65;;;;;;;;;;5072883;28;20037;-36
2024/02/05 11:08:05;;;;;;;26.02;4.70;;;;;;;;;;5072814;28;20021;-36
2024/02/05 11:10:33;;;;;;;23.83;4.90;;;;;;;;;;5072915;28;20104;-36
2024/02/05 11:13:01;;;;;;;28.17;4.95;;;;;;;;;;5072568;28;20045;-36
2024/02/05 11:15:30;;;;;;;29.13;5.07;;;;;;;;;;5072494;28;20032;-36
2024/02/05 11:17:58;;;;;;;29.15;4.72;;;;;;;;;;5072740;28;20082;-36
2024/02/05 11:20:27;;;;;;;36.17;5.75;;;;;;;;;;5072625;28;20032;-36
2024/02/05 11:22:55;;;;;;;23.30;4.40;;;;;;;;;;5072615;28;20032;-36
2024/02/05 11:25:23;;;;;;;20.88;4.10;;;;;;;;;;5072319;28;20036;-36
2024/02/05 11:27:50;;;;;;;24.23;4.97;;;;;;;;;;5072542;28;20020;-36
2024/02/05 11:30:18;;;;;;;26.77;5.60;;;;;;;;;;5072790;28;20398;-36
2024/02/05 11:32:45;;;;;;;22.52;4.40;;;;;;;;;;5072118;28;20078;-36
2024/02/05 11:35:13;;;;;;;30.88;4.72;;;;;;;;;;5067131;28;20040;-37
2024/02/05 11:37:44;;;;;;;31.40;5.43;;;;;;;;;;5067058;28;20032;-37
2024/02/05 11:40:22;;;;;;;28.63;4.97;;;;;;;;;;5064078;28;20466;-37
2024/02/05 11:42:49;;;;;;;37.08;5.53;;;;;;;;;;5062570;28;20032;-35
2024/02/05 11:45:16;;;;;;;32.95;5.32;;;;;;;;;;5061538;28;20555;-38
2024/02/05 11:47:43;;;;;;;37.65;5.68;;;;;;;;;;5065779;28;20062;-38
2024/02/05 11:50:10;;;;;;;31.42;5.35;;;;;;;;;;5066435;28;20737;-36
2024/02/05 11:52:39;;;;;;;36.70;5.50;;;;;;;;;;5064089;28;20033;-39
2024/02/05 11:55:07;;;;;;;34.35;5.55;;;;;;;;;;5062706;28;20025;-38
2024/02/05 11:57:34;;;;;;;34.00;5.43;;;;;;;;;;5064336;28;20025;-37
2024/02/05 12:00:01;;;;;;;43.33;5.78;;;;;;;;;;5060814;28;20032;-37
2024/02/05 12:02:28;;;;;;;36.45;6.35;;;;;;;;;;5061822;28;20058;-38
2024/02/05 12:04:55;;;;;;;34.83;5.90;;;;;;;;;;5059163;28;20036;-39
2024/02/05 12:07:22;;;;;;;35.83;5.63;;;;;;;;;;5057733;28;20037;-38
2024/02/05 12:09:51;;;;;;;40.53;6.10;;;;;;;;;;5060487;28;20040;-37
2024/02/05 12:12:18;;;;;;;30.10;5.40;;;;;;;;;;5070659;28;20028;-37
2024/02/05 12:14:45;;;;;;;28.42;4.80;;;;;;;;;;5044648;28;20435;-37
2024/02/05 12:17:14;;;;;;;32.20;5.13;;;;;;;;;;5040532;28;20098;-39
2024/02/05 12:19:41;;;;;;;27.33;3.97;;;;;;;;;;5030533;28;20034;-38
2024/02/05 12:22:08;;;;;;;24.23;5.22;;;;;;;;;;5044138;28;20364;-37
2024/02/05 12:24:35;;;;;;;28.85;4.45;;;;;;;;;;5041008;28;20033;-38
2024/02/05 12:27:02;;;;;;;28.67;4.50;;;;;;;;;;5039822;28;20390;-37
2024/02/05 12:29:29;;;;;;;31.60;5.65;;;;;;;;;;5039781;28;20026;-37
2024/02/05 12:32:09;;;;;;;28.63;4.78;;;;;;;;;;5020314;28;20383;-37
2024/02/05 12:34:37;;;;;;;29.63;4.88;;;;;;;;;;5038471;28;20072;-37
2024/02/05 12:37:06;;;;;;;27.67;5.18;;;;;;;;;;5038651;28;20039;-38
2024/02/05 12:39:33;;;;;;;19.52;4.38;;;;;;;;;;5038787;28;20033;-36
2024/02/05 12:42:00;;;;;;;24.58;4.55;;;;;;;;;;5039993;28;20588;-36
2024/02/05 12:44:27;;;;;;;25.35;4.20;;;;;;;;;;5047700;28;20025;-36
2024/02/05 12:46:54;;;;;;;20.55;4.43;;;;;;;;;;5045513;28;20111;-37
2024/02/05 12:49:22;;;;;;;34.33;5.63;;;;;;;;;;5045978;28;20033;-38
2024/02/05 12:51:50;;;;;;;22.98;4.30;;;;;;;;;;5042958;28;20033;-37
2024/02/05 12:54:17;;;;;;;24.25;3.72;;;;;;;;;;5036958;28;20032;-36
2024/02/05 12:56:44;;;;;;;29.23;4.88;;;;;;;;;;5043825;28;20068;-38
2024/02/05 12:59:12;;;;;;;25.17;4.25;;;;;;;;;;5039154;28;20064;-36
2024/02/05 13:01:39;;;;;;;27.73;4.88;;;;;;;;;;5041229;28;20086;-38
2024/02/05 13:04:08;;;;;;;24.30;4.80;;;;;;;;;;5038708;28;20034;-37
2024/02/05 13:06:35;;;;;;;20.67;4.35;;;;;;;;;;5039983;28;20076;-37
2024/02/05 13:09:03;;;;;;;28.60;4.65;;;;;;;;;;5038675;28;20038;-37
2024/02/05 13:11:30;;;;;;;39.45;5.88;;;;;;;;;;5040312;28;20033;-37
2024/02/05 13:14:01;;;;;;;31.40;4.88;;;;;;;;;;5050349;28;20529;-37
2024/02/05 13:16:29;;;;;;;18.00;4.18;;;;;;;;;;5062310;28;20029;-37
2024/02/05 13:18:56;;;;;;;26.15;4.28;;;;;;;;;;5059390;28;20033;-36
2024/02/05 13:21:23;;;;;;;24.95;4.57;;;;;;;;;;5059879;28;20551;-34
2024/02/05 13:23:49;;;;;;;27.58;5.03;;;;;;;;;;5061065;28;20037;-35
2024/02/05 13:26:16;;;;;;;24.33;5.25;;;;;;;;;;5060554;28;20040;-35
2024/02/05 13:28:44;;;;;;;34.83;5.10;;;;;;;;;;5063065;28;20089;-35
2024/02/05 13:31:12;;;;;;;30.65;4.47;;;;;;;;;;5048372;28;20117;-37
2024/02/05 13:33:39;;;;;;;18.95;4.30;;;;;;;;;;5066579;28;20044;-38
2024/02/05 13:36:06;;;;;;;28.95;4.88;;;;;;;;;;5071117;28;20032;-36
2024/02/05 13:38:33;;;;;;;26.88;4.72;;;;;;;;;;5074098;28;20116;-36
2024/02/05 13:41:01;;;;;;;27.23;5.20;;;;;;;;;;5071241;28;20593;-36
2024/02/05 13:43:28;;;;;;;40.72;6.10;;;;;;;;;;5071159;28;20482;-37
2024/02/05 13:45:55;;;;;;;32.05;4.82;;;;;;;;;;5072787;28;20031;-36
2024/02/05 13:48:23;;;;;;;32.50;4.63;;;;;;;;;;5089726;28;20036;-38
2024/02/05 13:50:50;;;;;;;29.95;5.32;;;;;;;;;;5061979;28;20055;-37
2024/02/05 13:53:17;;;;;;;23.10;4.55;;;;;;;;;;5060900;28;20476;-37
2024/02/05 13:55:44;;;;;;;19.80;4.53;;;;;;;;;;5060160;28;20383;-37
2024/02/05 13:58:11;;;;;;;24.45;4.60;;;;;;;;;;5063405;28;20056;-38
2024/02/05 14:00:38;;;;;;;22.48;4.05;;;;;;;;;;5063839;28;20063;-36
2024/02/05 14:03:05;;;;;;;26.55;4.95;;;;;;;;;;5070511;28;20032;-36
2024/02/05 14:05:33;;;;;;;23.50;4.20;;;;;;;;;;5072799;28;20498;-38
2024/02/05 14:08:00;;;;;;;28.83;4.70;;;;;;;;;;5059611;28;20036;-36
2024/02/05 14:10:27;;;;;;;32.05;4.72;;;;;;;;;;5053538;28;20037;-37
2024/02/05 14:12:54;;;;;;;25.50;4.72;;;;;;;;;;5054504;28;20053;-37
2024/02/05 14:15:21;;;;;;;22.48;4.15;;;;;;;;;;5073012;28;20039;-37
2024/02/05 14:17:49;;;;;;;22.13;4.50;;;;;;;;;;5072290;28;20113;-37
2024/02/05 14:20:16;;;;;;;18.00;4.18;;;;;;;;;;5073438;28;20060;-36
2024/02/05 14:22:43;;;;;;;22.10;4.35;;;;;;;;;;5073321;28;20082;-36
2024/02/05 14:25:10;;;;;;;42.80;5.25;;;;;;;;;;5072559;28;20040;-36
2024/02/05 14:27:38;;;;;;;54.60;6.93;;;;;;;;;;5071603;28;20037;-36
2024/02/05 14:30:07;;;;;;;55.17;6.65;;;;;;;;;;5073292;28;20024;-37
2024/02/05 14:32:35;;;;;;;35.70;6.13;;;;;;;;;;5073289;28;20040;-37